Time;durP1;ratioP1;P1;durP2;ratioP2;P2;SDS_P1;SDS_P2;PMS_P1;PMS_P2;Temp;Humidity;BMP_temperature;BMP_pressure;BME280_temperature;BME280_humidity;BME280_pressure;Samples;Min_cycle;Max_cycle;Signal;HPM_P1;HPM_P2
2022/01/15 00:00:27;;;;;;;55.40;33.53;;;-5.90;99.90;;;;;;5096562;28;20198;-86
2022/01/15 00:02:53;;;;;;;48.37;33.50;;;-5.20;99.90;;;;;;5096322;28;20427;-86
2022/01/15 00:05:19;;;;;;;54.00;32.03;;;-5.30;99.90;;;;;;5095885;28;20708;-84
2022/01/15 00:07:47;;;;;;;57.17;36.97;;;-3.10;99.90;;;;;;5094558;28;20414;-86
2022/01/15 00:10:15;;;;;;;46.60;32.33;;;-3.10;99.90;;;;;;5095036;28;20416;-85
2022/01/15 00:12:41;;;;;;;50.43;32.63;;;-5.50;99.90;;;;;;5095876;28;20406;-84
2022/01/15 00:15:16;;;;;;;56.30;34.27;;;-3.50;99.90;;;;;;5094357;28;20515;-84
2022/01/15 00:17:52;;;;;;;59.13;34.53;;;-5.60;99.90;;;;;;5095134;28;20244;-84
2022/01/15 00:20:20;;;;;;;54.53;34.27;;;-5.00;99.90;;;;;;5094745;28;20237;-84
2022/01/15 00:22:47;;;;;;;53.43;34.30;;;-3.80;99.90;;;;;;5095602;28;20399;-84
2022/01/15 00:25:14;;;;;;;50.23;32.87;;;-5.30;99.90;;;;;;5095762;28;20407;-84
2022/01/15 00:27:40;;;;;;;45.83;32.17;;;-3.50;99.90;;;;;;5096015;28;20456;-84
2022/01/15 00:30:07;;;;;;;48.33;32.60;;;-4.50;99.90;;;;;;5096020;28;20406;-84
2022/01/15 00:32:33;;;;;;;57.57;36.53;;;-5.60;99.90;;;;;;5095458;28;20400;-83
2022/01/15 00:35:00;;;;;;;49.63;32.43;;;-4.40;99.90;;;;;;5092790;28;20243;-83
2022/01/15 00:37:31;;;;;;;51.87;36.07;;;-5.40;99.90;;;;;;5095960;28;20170;-84
2022/01/15 00:39:58;;;;;;;52.83;34.10;;;-3.00;99.90;;;;;;5094369;28;20474;-84
2022/01/15 00:42:25;;;;;;;48.87;34.33;;;-5.00;99.90;;;;;;5094250;28;20410;-84
2022/01/15 00:44:51;;;;;;;55.60;34.90;;;-2.80;99.90;;;;;;5094655;28;20873;-83
2022/01/15 00:47:17;;;;;;;51.17;34.20;;;-3.90;99.90;;;;;;5095697;28;20409;-83
2022/01/15 00:49:43;;;;;;;49.30;34.27;;;-4.00;99.90;;;;;;5094368;28;20422;-84
2022/01/15 00:52:09;;;;;;;47.37;32.60;;;-1.70;99.90;;;;;;5095925;28;20403;-84
2022/01/15 00:54:35;;;;;;;52.60;33.70;;;-3.00;99.90;;;;;;5094431;28;20492;-82
2022/01/15 00:57:03;;;;;;;50.17;34.07;;;-2.30;99.90;;;;;;5099202;28;20591;-84
2022/01/15 00:59:28;;;;;;;49.87;33.13;;;-5.20;99.90;;;;;;5098532;28;20197;-84
2022/01/15 01:01:54;;;;;;;55.03;34.73;;;-5.70;99.90;;;;;;5102338;28;20391;-84
2022/01/15 01:04:21;;;;;;;50.87;35.47;;;-5.20;99.90;;;;;;5111725;28;20169;-84
2022/01/15 01:06:47;;;;;;;53.73;32.97;;;-3.40;99.90;;;;;;5107159;28;20176;-85
2022/01/15 01:09:13;;;;;;;59.40;34.27;;;-5.20;99.90;;;;;;5099381;28;20435;-84
2022/01/15 01:11:51;;;;;;;53.13;32.77;;;-3.00;99.90;;;;;;5100698;28;20178;-84
2022/01/15 01:20:06;;;;;;;53.23;33.17;;;-4.70;99.90;;;;;;5098793;28;20953;-85
2022/01/15 01:22:55;;;;;;;53.20;33.60;;;-4.30;99.90;;;;;;5098552;28;20470;-84
2022/01/15 01:25:19;;;;;;;50.53;32.97;;;-4.90;99.90;;;;;;5098687;28;20406;-84
2022/01/15 01:27:49;;;;;;;53.43;34.07;;;-3.30;99.90;;;;;;5099083;28;20434;-84
2022/01/15 01:30:56;;;;;;;48.73;33.17;;;-3.50;99.90;;;;;;5098591;28;20782;-84
2022/01/15 01:36:02;;;;;;;45.07;32.40;;;-5.90;99.90;;;;;;5098364;28;20445;-83
2022/01/15 01:38:36;;;;;;;54.03;33.03;;;-5.30;99.90;;;;;;5097900;28;20537;-83
2022/01/15 01:41:04;;;;;;;48.33;30.47;;;-4.50;99.90;;;;;;5099073;28;20402;-84
2022/01/15 01:46:21;;;;;;;54.93;34.10;;;-5.90;99.90;;;;;;5098730;28;20779;-84
2022/01/15 01:48:47;;;;;;;55.10;35.07;;;-4.70;99.90;;;;;;5098590;28;20449;-84
2022/01/15 01:51:23;;;;;;;52.93;31.13;;;-5.40;99.90;;;;;;5097968;28;20410;-84
2022/01/15 01:53:50;;;;;;;60.40;36.80;;;-3.50;99.90;;;;;;5098174;28;20830;-83
2022/01/15 01:56:16;;;;;;;59.87;36.50;;;-3.10;99.90;;;;;;5097746;28;20450;-82
2022/01/15 01:58:42;;;;;;;53.17;36.73;;;-2.60;99.90;;;;;;5097600;28;20452;-83
2022/01/15 02:01:08;;;;;;;60.73;35.17;;;-4.20;99.90;;;;;;5098638;28;20398;-84
2022/01/15 02:03:34;;;;;;;57.73;38.17;;;-4.40;99.90;;;;;;5097954;28;20409;-84
2022/01/15 02:05:59;;;;;;;55.30;34.80;;;-5.80;99.90;;;;;;5098796;28;20181;-85
2022/01/15 02:08:25;;;;;;;57.00;35.70;;;-6.80;99.90;;;;;;5097914;28;20181;-85
2022/01/15 02:10:51;;;;;;;60.50;35.77;;;-3.60;99.90;;;;;;5097904;28;20250;-81
2022/01/15 02:13:18;;;;;;;62.93;38.77;;;-4.10;99.90;;;;;;5098704;28;20170;-84
2022/01/15 02:15:44;;;;;;;59.63;37.10;;;-4.80;99.90;;;;;;5098434;28;20166;-84
2022/01/15 02:18:11;;;;;;;67.90;42.83;;;-5.40;99.90;;;;;;5097134;28;20754;-85
2022/01/15 02:21:01;;;;;;;67.87;39.80;;;-3.60;99.90;;;;;;5097435;28;20579;-84
2022/01/15 02:23:33;;;;;;;65.23;42.60;;;-8.10;99.90;;;;;;5096985;28;20498;-83
2022/01/15 02:26:02;;;;;;;69.77;43.10;;;-3.30;99.90;;;;;;5098191;28;20755;-83
2022/01/15 02:28:42;;;;;;;66.47;38.83;;;-3.50;99.90;;;;;;5097991;28;20405;-85
2022/01/15 02:31:11;;;;;;;67.50;43.70;;;-5.80;99.90;;;;;;5097696;28;20832;-83
2022/01/15 02:33:39;;;;;;;68.10;41.07;;;-3.90;99.90;;;;;;5097159;28;20410;-82
2022/01/15 02:36:07;;;;;;;64.53;39.90;;;-4.60;99.90;;;;;;5096816;28;20464;-85
2022/01/15 02:38:33;;;;;;;63.87;40.07;;;-5.60;99.90;;;;;;5097145;28;20512;-84
2022/01/15 02:40:59;;;;;;;66.17;40.00;;;-4.30;99.90;;;;;;5096847;28;20497;-82
2022/01/15 02:43:32;;;;;;;64.97;37.03;;;-3.70;99.90;;;;;;5097061;28;20457;-83
2022/01/15 02:46:08;;;;;;;75.47;42.53;;;-3.90;99.90;;;;;;5097535;28;20202;-84
2022/01/15 02:48:36;;;;;;;62.83;40.50;;;-3.20;99.90;;;;;;5096212;28;20408;-81
2022/01/15 02:51:02;;;;;;;62.07;37.83;;;-3.20;99.90;;;;;;5097105;28;20401;-81
2022/01/15 02:53:28;;;;;;;60.97;39.00;;;-4.80;99.90;;;;;;5096761;28;20433;-82
2022/01/15 02:55:54;;;;;;;75.57;43.23;;;-4.60;99.90;;;;;;5096106;28;20171;-84
2022/01/15 02:58:22;;;;;;;62.77;40.23;;;-5.10;99.90;;;;;;5097531;28;20171;-82
2022/01/15 03:00:49;;;;;;;67.70;37.90;;;-4.30;99.90;;;;;;5097275;28;20431;-83
2022/01/15 03:03:15;;;;;;;66.43;39.37;;;-5.30;99.90;;;;;;5096196;28;20404;-85
2022/01/15 03:05:41;;;;;;;66.17;38.20;;;-4.40;99.90;;;;;;5095866;28;20404;-85
2022/01/15 03:08:07;;;;;;;62.93;38.20;;;-6.40;99.90;;;;;;5096525;28;20188;-86
2022/01/15 03:10:33;;;;;;;61.23;38.67;;;-4.10;99.90;;;;;;5097833;28;20176;-83
2022/01/15 03:13:01;;;;;;;64.93;37.73;;;-6.60;99.90;;;;;;5096402;28;20258;-85
2022/01/15 03:15:27;;;;;;;58.80;36.67;;;-6.50;99.90;;;;;;5096376;28;20417;-85
2022/01/15 03:17:53;;;;;;;57.73;35.57;;;-6.90;99.90;;;;;;5096079;28;20444;-84
2022/01/15 03:20:20;;;;;;;57.67;34.90;;;-5.70;99.90;;;;;;5095511;28;20444;-79
2022/01/15 03:22:47;;;;;;;66.40;37.03;;;-6.70;99.90;;;;;;5096798;28;20164;-81
2022/01/15 03:25:13;;;;;;;58.83;34.27;;;-5.60;99.90;;;;;;5096915;28;20693;-83
2022/01/15 03:27:40;;;;;;;65.30;35.23;;;-4.00;99.90;;;;;;5097201;28;20699;-83
2022/01/15 03:30:08;;;;;;;67.90;37.73;;;-4.40;99.90;;;;;;5096780;28;20838;-81
2022/01/15 03:32:35;;;;;;;59.43;36.93;;;-5.80;99.90;;;;;;5096147;28;20444;-80
2022/01/15 03:35:00;;;;;;;63.83;35.33;;;-6.10;99.90;;;;;;5095951;28;20499;-81
2022/01/15 03:37:26;;;;;;;66.23;37.00;;;-4.60;99.90;;;;;;5096896;28;20733;-81
2022/01/15 03:39:52;;;;;;;63.77;36.70;;;-4.30;99.90;;;;;;5096746;28;20213;-80
2022/01/15 03:42:18;;;;;;;61.40;34.80;;;-6.90;99.90;;;;;;5094936;28;20170;-81
2022/01/15 03:44:47;;;;;;;60.37;35.23;;;-6.10;99.90;;;;;;5096560;28;20218;-81
2022/01/15 03:47:13;;;;;;;58.97;34.73;;;-6.30;99.90;;;;;;5096637;28;20431;-80
2022/01/15 03:49:40;;;;;;;66.67;37.67;;;-7.70;99.90;;;;;;5096164;28;20429;-81
2022/01/15 03:52:07;;;;;;;70.67;38.87;;;-4.70;99.90;;;;;;5096323;28;20439;-81
2022/01/15 03:54:33;;;;;;;73.57;40.87;;;-6.20;99.90;;;;;;5096450;28;20398;-81
2022/01/15 03:57:00;;;;;;;71.73;42.93;;;-5.40;99.90;;;;;;5096561;28;20448;-84
2022/01/15 03:59:26;;;;;;;63.77;36.90;;;-7.40;99.90;;;;;;5095466;28;20761;-85
2022/01/15 04:01:53;;;;;;;68.13;37.90;;;-5.00;99.90;;;;;;5095534;28;20393;-85
2022/01/15 04:04:19;;;;;;;69.13;39.00;;;-7.20;99.90;;;;;;5095423;28;20550;-84
2022/01/15 04:06:45;;;;;;;63.07;35.40;;;-6.10;99.90;;;;;;5096452;28;20477;-86
2022/01/15 04:09:12;;;;;;;67.30;37.17;;;-5.00;99.90;;;;;;5095647;28;20451;-84
2022/01/15 04:11:38;;;;;;;76.27;40.07;;;-4.70;99.90;;;;;;5095367;28;20173;-84
2022/01/15 04:14:05;;;;;;;69.77;38.20;;;-4.90;99.90;;;;;;5095864;28;20405;-84
2022/01/15 04:16:30;;;;;;;74.73;38.53;;;-7.40;99.90;;;;;;5095979;28;20404;-84
2022/01/15 04:18:57;;;;;;;82.67;39.90;;;-6.30;99.90;;;;;;5095612;28;20444;-83
2022/01/15 04:21:23;;;;;;;73.37;39.37;;;-5.30;99.90;;;;;;5094354;28;20172;-84
2022/01/15 04:23:49;;;;;;;68.90;36.40;;;-7.90;99.90;;;;;;5096186;28;20403;-84
2022/01/15 04:26:15;;;;;;;67.00;36.27;;;-6.00;99.90;;;;;;5094091;28;20407;-84
2022/01/15 04:28:41;;;;;;;71.13;37.73;;;-5.60;99.90;;;;;;5096126;28;20734;-85
2022/01/15 04:31:08;;;;;;;70.87;39.30;;;-7.70;99.90;;;;;;5095840;28;20168;-84
2022/01/15 04:33:36;;;;;;;70.53;38.30;;;-5.40;99.90;;;;;;5095932;28;20166;-85
2022/01/15 04:36:03;;;;;;;72.00;37.40;;;-4.40;99.90;;;;;;5095389;28;20482;-85
2022/01/15 04:38:32;;;;;;;72.07;36.77;;;-7.60;99.90;;;;;;5094453;28;20877;-84
2022/01/15 04:40:59;;;;;;;71.00;36.13;;;-4.40;99.90;;;;;;5094945;28;20434;-85
2022/01/15 04:43:25;;;;;;;65.07;34.77;;;-8.40;99.90;;;;;;5094783;28;20718;-85
2022/01/15 04:45:50;;;;;;;72.20;38.50;;;-7.50;99.90;;;;;;5096814;28;20239;-86
2022/01/15 04:48:16;;;;;;;72.07;36.43;;;-4.80;99.90;;;;;;5099557;28;20176;-84
2022/01/15 04:50:42;;;;;;;71.30;34.37;;;-6.90;99.90;;;;;;5096338;28;20216;-84
2022/01/15 04:53:09;;;;;;;75.63;37.70;;;-6.80;99.90;;;;;;5095298;28;20175;-86
2022/01/15 04:55:36;;;;;;;76.90;38.67;;;-5.00;99.90;;;;;;5095480;28;20170;-84
2022/01/15 04:58:02;;;;;;;75.43;36.37;;;-6.80;99.90;;;;;;5094743;28;20421;-83
2022/01/15 05:00:28;;;;;;;75.20;36.27;;;-6.60;99.90;;;;;;5095580;28;20458;-83
2022/01/15 05:02:54;;;;;;;83.40;38.47;;;-4.30;99.90;;;;;;5093924;28;20795;-84
2022/01/15 05:05:20;;;;;;;71.60;37.27;;;-7.30;99.90;;;;;;5095711;28;20168;-82
2022/01/15 05:07:46;;;;;;;73.27;34.77;;;-7.40;99.90;;;;;;5094584;28;20216;-81
2022/01/15 05:10:17;;;;;;;77.40;38.87;;;-7.70;99.90;;;;;;5095350;28;20516;-81
2022/01/15 05:12:44;;;;;;;78.13;38.00;;;-6.90;99.90;;;;;;5094986;28;20175;-81
2022/01/15 05:15:15;;;;;;;73.93;36.23;;;-7.10;99.90;;;;;;5094541;28;20526;-84
2022/01/15 05:17:42;;;;;;;75.53;38.90;;;-7.40;99.90;;;;;;5095685;28;20843;-83
2022/01/15 05:20:10;;;;;;;71.27;35.83;;;-7.40;99.90;;;;;;5094075;28;20818;-83
2022/01/15 05:22:36;;;;;;;78.40;39.13;;;-7.30;99.90;;;;;;5095048;28;20486;-84
2022/01/15 05:25:04;;;;;;;71.97;37.93;;;-6.90;99.90;;;;;;5095232;28;20487;-84
2022/01/15 05:27:30;;;;;;;69.23;36.13;;;-7.70;99.90;;;;;;5094558;28;20485;-83
2022/01/15 05:29:55;;;;;;;72.33;36.07;;;-6.80;99.90;;;;;;5094702;28;20403;-84
2022/01/15 05:32:23;;;;;;;77.73;39.53;;;-6.70;99.90;;;;;;5095403;28;20538;-84
2022/01/15 05:34:50;;;;;;;83.67;37.53;;;-6.10;99.90;;;;;;5095367;28;20262;-83
2022/01/15 05:37:16;;;;;;;74.63;34.73;;;-6.40;99.90;;;;;;5095411;28;20460;-83
2022/01/15 05:39:42;;;;;;;80.97;38.60;;;-6.80;99.90;;;;;;5094192;28;20462;-84
2022/01/15 05:42:08;;;;;;;82.83;39.87;;;-6.80;99.90;;;;;;5096424;28;21070;-84
2022/01/15 05:44:35;;;;;;;100.40;39.80;;;-7.90;99.90;;;;;;5099180;28;20636;-84
2022/01/15 05:47:01;;;;;;;85.43;38.30;;;-7.50;99.90;;;;;;5097497;28;20407;-84
2022/01/15 05:49:29;;;;;;;79.53;35.87;;;-8.00;99.90;;;;;;5098849;28;20407;-81
2022/01/15 05:51:55;;;;;;;83.57;38.70;;;-6.30;99.90;;;;;;5097332;28;20779;-82
2022/01/15 05:54:20;;;;;;;80.57;37.90;;;-8.40;99.90;;;;;;5098639;28;20399;-81
2022/01/15 05:56:46;;;;;;;76.43;36.23;;;-8.40;99.90;;;;;;5098092;28;20196;-83
2022/01/15 05:59:12;;;;;;;96.20;36.80;;;-6.70;99.90;;;;;;5098864;28;20187;-81
2022/01/15 06:01:38;;;;;;;84.57;39.33;;;-6.50;99.90;;;;;;5098627;28;20219;-81
2022/01/15 06:04:05;;;;;;;90.37;37.90;;;-7.50;99.90;;;;;;5098918;28;20171;-83
2022/01/15 06:06:31;;;;;;;85.00;38.93;;;-8.00;99.90;;;;;;5108309;28;20185;-80
2022/01/15 06:08:57;;;;;;;83.07;37.90;;;-8.70;99.90;;;;;;5098941;28;20715;-84
2022/01/15 06:11:24;;;;;;;71.50;34.77;;;-8.40;99.90;;;;;;5104367;28;20411;-82
2022/01/15 06:13:50;;;;;;;74.73;37.27;;;-7.50;99.90;;;;;;5119020;28;20472;-81
2022/01/15 06:16:16;;;;;;;77.40;36.23;;;-8.60;99.90;;;;;;5118710;28;20406;-81
2022/01/15 06:18:42;;;;;;;68.43;35.17;;;-8.90;99.90;;;;;;5118668;28;20463;-80
2022/01/15 06:21:08;;;;;;;61.37;32.13;;;-9.30;99.90;;;;;;5118762;28;20671;-81
2022/01/15 06:23:34;;;;;;;61.83;31.00;;;-5.60;99.90;;;;;;5110891;28;20220;-82
2022/01/15 06:26:00;;;;;;;67.43;33.20;;;-7.50;99.90;;;;;;5115928;28;20178;-82
2022/01/15 06:28:26;;;;;;;53.80;28.43;;;-8.10;99.90;;;;;;5117378;28;20166;-81
2022/01/15 06:30:51;;;;;;;62.33;30.53;;;-6.70;99.90;;;;;;5118502;28;20176;-81
2022/01/15 06:33:17;;;;;;;63.47;31.30;;;-8.00;99.90;;;;;;5117871;28;20178;-80
2022/01/15 06:35:43;;;;;;;55.57;30.63;;;-5.00;99.90;;;;;;5117660;28;20182;-83
2022/01/15 06:38:09;;;;;;;65.43;31.43;;;-8.20;99.90;;;;;;5117920;28;20182;-82
2022/01/15 06:40:36;;;;;;;59.37;31.30;;;-5.20;99.90;;;;;;5118341;28;20236;-82
2022/01/15 06:43:02;;;;;;;55.17;30.30;;;-6.40;99.90;;;;;;5117865;28;20426;-81
2022/01/15 06:45:29;;;;;;;56.37;30.83;;;-8.10;99.90;;;;;;5118332;28;20989;-82
2022/01/15 06:47:56;;;;;;;52.43;28.30;;;-6.10;99.90;;;;;;5134350;27;20478;-82
2022/01/15 06:50:24;;;;;;;52.90;29.87;;;-8.80;99.90;;;;;;5116501;28;20410;-82
2022/01/15 06:52:50;;;;;;;52.30;27.93;;;-8.30;99.90;;;;;;5116522;28;20414;-79
2022/01/15 06:55:17;;;;;;;53.57;28.73;;;-9.00;99.90;;;;;;5118325;28;20833;-80
2022/01/15 06:57:43;;;;;;;54.67;28.00;;;-8.20;99.90;;;;;;5118142;28;20205;-81
2022/01/15 07:00:10;;;;;;;58.83;30.40;;;-7.50;99.90;;;;;;5116255;28;20764;-81
2022/01/15 07:02:36;;;;;;;49.27;27.47;;;-8.00;99.90;;;;;;5116793;28;20714;-81
2022/01/15 07:05:03;;;;;;;56.63;31.53;;;-8.10;99.90;;;;;;5118024;28;20875;-80
2022/01/15 07:07:29;;;;;;;58.63;29.27;;;-7.70;99.90;;;;;;5133584;27;20418;-80
2022/01/15 07:09:54;;;;;;;51.20;28.23;;;-4.60;99.90;;;;;;5133132;27;20418;-80
2022/01/15 07:12:20;;;;;;;49.07;25.23;;;-7.30;99.90;;;;;;5117892;28;20170;-81
2022/01/15 07:14:46;;;;;;;48.87;25.67;;;-7.00;99.90;;;;;;5117781;28;20170;-81
2022/01/15 07:17:12;;;;;;;53.90;28.13;;;-6.70;99.90;;;;;;5116005;28;20169;-81
2022/01/15 07:19:38;;;;;;;52.20;27.30;;;-7.00;99.90;;;;;;5117571;28;20200;-81
2022/01/15 07:22:05;;;;;;;55.17;27.70;;;-4.80;99.90;;;;;;5116881;28;20176;-80
2022/01/15 07:24:31;;;;;;;52.33;27.17;;;-7.30;99.90;;;;;;5117721;28;20162;-82
2022/01/15 07:26:57;;;;;;;50.13;24.17;;;-5.70;99.90;;;;;;5116618;28;20713;-81
2022/01/15 07:29:24;;;;;;;53.63;25.60;;;-7.00;99.90;;;;;;5117440;28;20178;-82
2022/01/15 07:31:52;;;;;;;54.57;25.07;;;-7.60;99.90;;;;;;5109560;28;20179;-81
2022/01/15 07:34:19;;;;;;;51.40;26.00;;;-7.70;99.90;;;;;;5096705;28;20408;-85
2022/01/15 07:36:52;;;;;;;49.33;26.03;;;-6.00;99.90;;;;;;5096352;28;20445;-82
2022/01/15 07:39:18;;;;;;;45.20;25.40;;;-7.50;99.90;;;;;;5096033;28;20455;-82
2022/01/15 07:41:44;;;;;;;44.47;22.37;;;-8.10;99.90;;;;;;5096167;28;20699;-80
2022/01/15 07:44:10;;;;;;;34.27;20.63;;;-7.90;99.90;;;;;;5094590;28;20812;-77
2022/01/15 07:46:36;;;;;;;36.90;21.90;;;-7.90;99.90;;;;;;5096665;28;20490;-75
2022/01/15 07:49:02;;;;;;;34.43;20.77;;;-8.00;99.90;;;;;;5096520;28;20167;-78
2022/01/15 07:51:29;;;;;;;34.77;21.70;;;-9.20;99.90;;;;;;5096427;28;20403;-77
2022/01/15 07:53:54;;;;;;;29.37;19.00;;;-8.70;99.90;;;;;;5095670;28;20399;-77
2022/01/15 07:56:21;;;;;;;34.53;19.77;;;-5.90;99.90;;;;;;5096657;28;20737;-77
2022/01/15 07:58:47;;;;;;;31.77;20.50;;;-8.60;99.90;;;;;;5095383;28;20175;-76
2022/01/15 08:01:13;;;;;;;44.80;19.77;;;-8.70;99.90;;;;;;5096534;28;20407;-78
2022/01/15 08:03:40;;;;;;;30.60;18.93;;;-7.70;99.90;;;;;;5095732;28;20480;-76
2022/01/15 08:06:07;;;;;;;35.93;21.33;;;-6.50;99.90;;;;;;5095509;28;20811;-77
2022/01/15 08:08:33;;;;;;;32.77;20.67;;;-8.60;99.90;;;;;;5096718;28;20528;-79
2022/01/15 08:10:59;;;;;;;34.00;21.00;;;-8.30;99.90;;;;;;5108214;28;20414;-80
2022/01/15 08:13:26;;;;;;;32.20;20.83;;;-7.90;99.90;;;;;;5104206;28;20845;-77
2022/01/15 08:15:57;;;;;;;30.53;21.63;;;-5.40;99.90;;;;;;5101253;28;20414;-79
2022/01/15 08:18:23;;;;;;;35.13;20.10;;;-4.90;99.90;;;;;;5093354;28;20411;-78
2022/01/15 08:20:49;;;;;;;34.17;20.53;;;-7.10;99.90;;;;;;5095259;28;20454;-79
2022/01/15 08:23:15;;;;;;;28.20;18.97;;;-4.60;99.90;;;;;;5104540;28;20467;-76
2022/01/15 08:25:41;;;;;;;28.90;18.23;;;-5.50;99.90;;;;;;5115906;28;20822;-78
2022/01/15 08:28:07;;;;;;;33.33;20.00;;;-7.40;99.90;;;;;;5116458;28;20173;-79
2022/01/15 08:30:33;;;;;;;31.23;20.00;;;-5.90;99.90;;;;;;5116811;28;20181;-80
2022/01/15 08:32:59;;;;;;;33.53;22.57;;;-9.10;99.90;;;;;;5131761;27;20257;-78
2022/01/15 08:35:25;;;;;;;30.50;19.50;;;-7.90;99.90;;;;;;5114925;28;20323;-78
2022/01/15 08:37:51;;;;;;;28.77;18.93;;;-4.00;99.90;;;;;;5114992;28;20182;-83
2022/01/15 08:40:19;;;;;;;33.77;20.30;;;-8.40;99.90;;;;;;5114313;28;20468;-80
2022/01/15 08:42:45;;;;;;;32.70;21.40;;;-8.30;99.90;;;;;;5116334;28;20163;-79
2022/01/15 08:45:13;;;;;;;28.03;18.93;;;-6.80;99.90;;;;;;5116128;28;20418;-79
2022/01/15 08:47:39;;;;;;;30.10;20.03;;;-5.70;99.90;;;;;;5111567;28;20410;-78
2022/01/15 08:50:07;;;;;;;32.53;20.73;;;-7.30;99.90;;;;;;5114465;28;20402;-76
2022/01/15 08:52:33;;;;;;;28.73;19.20;;;-7.20;99.90;;;;;;5108233;28;20174;-79
2022/01/15 08:54:59;;;;;;;28.97;20.00;;;-7.60;99.90;;;;;;5106277;28;20417;-79
2022/01/15 08:57:28;;;;;;;26.57;18.70;;;-5.50;99.90;;;;;;5102496;28;20406;-78
2022/01/15 08:59:59;;;;;;;38.00;22.00;;;-7.80;99.90;;;;;;5104892;28;20641;-79
2022/01/15 09:02:24;;;;;;;28.37;20.27;;;-8.20;99.90;;;;;;5101447;28;20422;-79
2022/01/15 09:04:51;;;;;;;32.53;20.60;;;-8.50;99.90;;;;;;5107209;28;20411;-77
2022/01/15 09:07:17;;;;;;;30.83;22.13;;;-8.30;99.90;;;;;;5105296;28;20171;-79
2022/01/15 09:09:43;;;;;;;31.07;20.13;;;-7.90;99.90;;;;;;5102911;28;20510;-79
2022/01/15 09:12:11;;;;;;;25.23;17.77;;;-7.70;99.90;;;;;;5101710;28;20415;-80
2022/01/15 09:14:38;;;;;;;24.37;18.60;;;-8.10;99.90;;;;;;5102461;28;20448;-83
2022/01/15 09:17:03;;;;;;;29.07;21.67;;;-8.60;99.90;;;;;;5097294;28;20415;-78
2022/01/15 09:19:29;;;;;;;27.97;18.53;;;-6.70;99.90;;;;;;5100991;28;20460;-74
2022/01/15 09:21:55;;;;;;;28.77;18.80;;;-7.90;99.90;;;;;;5105917;28;20181;-77
2022/01/15 09:24:21;;;;;;;24.83;17.73;;;-6.00;99.90;;;;;;5106273;28;20205;-76
2022/01/15 09:32:04;;;;;;;26.73;19.17;;;-7.30;99.90;;;;;;5106361;28;20409;-74
2022/01/15 09:34:37;;;;;;;24.50;18.67;;;-7.10;99.90;;;;;;5105436;28;20419;-77
2022/01/15 09:37:11;;;;;;;26.53;19.57;;;-7.10;99.90;;;;;;5105484;28;20654;-74
2022/01/15 09:39:37;;;;;;;26.63;19.80;;;-7.00;99.90;;;;;;5104104;28;20507;-74
2022/01/15 09:42:03;;;;;;;23.43;16.93;;;-6.10;99.90;;;;;;5106099;28;20438;-77
2022/01/15 09:44:31;;;;;;;22.77;16.90;;;-7.80;99.90;;;;;;5107408;28;20210;-78
2022/01/15 09:46:57;;;;;;;23.97;17.97;;;-7.00;99.90;;;;;;5107012;28;20407;-76
2022/01/15 09:49:26;;;;;;;24.57;17.60;;;-6.90;99.90;;;;;;5106472;28;20416;-76
2022/01/15 09:51:52;;;;;;;21.87;16.57;;;-7.40;99.90;;;;;;5108443;28;20744;-83
2022/01/15 09:54:18;;;;;;;29.03;19.10;;;-7.50;99.90;;;;;;5106048;28;20464;-78
2022/01/15 09:56:46;;;;;;;22.37;16.37;;;-6.90;99.90;;;;;;5110632;28;20547;-77
2022/01/15 09:59:13;;;;;;;27.63;19.13;;;-7.20;99.90;;;;;;5105389;28;20438;-77
2022/01/15 10:01:39;;;;;;;25.30;18.20;;;-7.40;99.90;;;;;;5103830;28;20412;-74
2022/01/15 10:04:04;;;;;;;23.23;16.63;;;-5.80;99.90;;;;;;5104732;28;20406;-78
2022/01/15 10:06:30;;;;;;;23.67;17.73;;;-7.30;99.90;;;;;;5105422;28;20481;-80
2022/01/15 10:09:01;;;;;;;28.00;20.70;;;-7.20;99.90;;;;;;5107827;28;20186;-75
2022/01/15 10:11:41;;;;;;;24.60;18.67;;;-7.00;99.90;;;;;;5106395;28;20170;-74
2022/01/15 10:14:26;;;;;;;25.37;18.93;;;-7.50;99.90;;;;;;5116597;28;20830;-82
2022/01/15 10:16:52;;;;;;;22.57;18.17;;;-7.60;99.90;;;;;;5110247;28;20410;-77
2022/01/15 10:19:37;;;;;;;22.87;17.50;;;-7.00;99.90;;;;;;5095861;28;20758;-76
2022/01/15 10:22:19;;;;;;;23.20;18.33;;;-6.50;99.90;;;;;;5104411;28;20435;-77
2022/01/15 10:24:58;;;;;;;23.93;17.20;;;-7.60;99.90;;;;;;5105026;28;20848;-82
2022/01/15 10:27:35;;;;;;;29.60;17.67;;;-7.20;99.90;;;;;;5097950;28;20411;-82
2022/01/15 10:30:12;;;;;;;23.37;16.57;;;-6.90;99.90;;;;;;5106526;28;20480;-81
2022/01/15 10:32:40;;;;;;;21.87;15.73;;;-7.20;99.90;;;;;;5101756;28;20488;-81
2022/01/15 10:35:15;;;;;;;23.23;16.97;;;-7.60;99.90;;;;;;5100400;28;20406;-81
2022/01/15 10:38:01;;;;;;;23.50;19.20;;;-7.80;99.90;;;;;;5110642;28;20413;-79
2022/01/15 10:40:38;;;;;;;22.27;16.47;;;-7.90;99.90;;;;;;5115660;27;20690;-80
2022/01/15 10:43:04;;;;;;;19.00;14.90;;;-6.90;99.90;;;;;;5105400;28;20469;-78
2022/01/15 10:45:34;;;;;;;23.53;18.03;;;-7.10;99.90;;;;;;5100298;28;20482;-76
2022/01/15 10:48:03;;;;;;;25.33;16.97;;;-7.50;99.90;;;;;;5095685;28;20407;-78
2022/01/15 10:50:38;;;;;;;26.97;19.43;;;-7.20;99.90;;;;;;5101543;28;20479;-79
2022/01/15 10:53:10;;;;;;;21.90;15.73;;;-7.30;99.90;;;;;;5108243;28;20413;-78
2022/01/15 10:55:38;;;;;;;24.20;17.47;;;-7.60;99.90;;;;;;5101704;28;20415;-79
2022/01/15 10:58:16;;;;;;;20.73;16.43;;;-7.70;99.90;;;;;;5099701;28;20434;-81
2022/01/15 11:00:46;;;;;;;21.10;17.33;;;-8.00;99.90;;;;;;5116633;27;20450;-78
2022/01/15 11:03:16;;;;;;;22.30;17.10;;;-8.40;99.90;;;;;;5104609;28;20503;-78
2022/01/15 11:05:44;;;;;;;24.23;17.40;;;-8.70;99.90;;;;;;5103931;28;20868;-80
2022/01/15 11:08:21;;;;;;;22.77;17.60;;;-8.70;99.90;;;;;;5105775;28;20470;-79
2022/01/15 11:10:53;;;;;;;21.67;16.93;;;-8.30;99.90;;;;;;5105547;28;20418;-75
2022/01/15 11:13:28;;;;;;;20.47;16.17;;;-8.00;99.90;;;;;;5100124;28;20443;-80
2022/01/15 11:16:04;;;;;;;18.57;14.77;;;-8.20;99.90;;;;;;5103658;28;20405;-79
2022/01/15 11:18:31;;;;;;;21.27;16.73;;;-7.80;99.90;;;;;;5101836;28;20430;-78
2022/01/15 11:21:00;;;;;;;19.57;15.17;;;-7.60;99.90;;;;;;5102264;28;20542;-77
2022/01/15 11:23:28;;;;;;;20.70;15.77;;;-5.70;99.90;;;;;;5104507;28;20499;-76
2022/01/15 11:25:57;;;;;;;20.13;16.77;;;-6.90;99.90;;;;;;5102954;28;20483;-77
2022/01/15 11:28:24;;;;;;;19.77;15.87;;;-6.90;99.90;;;;;;5097445;28;20399;-77
2022/01/15 11:31:00;;;;;;;22.37;16.20;;;-6.50;99.90;;;;;;5104637;28;20419;-77
2022/01/15 11:33:32;;;;;;;21.13;16.63;;;-6.70;99.90;;;;;;5130166;27;20424;-80
2022/01/15 11:35:59;;;;;;;22.23;17.33;;;-4.60;99.90;;;;;;5114670;28;20460;-79
2022/01/15 11:38:45;;;;;;;18.50;14.90;;;-6.40;99.90;;;;;;5114998;28;20527;-79
2022/01/15 11:41:39;;;;;;;21.27;14.97;;;-6.30;99.90;;;;;;5115063;28;20725;-79
2022/01/15 11:44:12;;;;;;;18.27;14.20;;;-6.30;99.90;;;;;;5108185;28;20432;-76
2022/01/15 11:46:40;;;;;;;19.47;15.00;;;-6.20;99.90;;;;;;5106881;28;20406;-77
2022/01/15 11:49:33;;;;;;;16.50;14.73;;;-6.20;99.90;;;;;;5105647;28;20889;-78
2022/01/15 11:52:14;;;;;;;19.73;14.43;;;-7.10;99.90;;;;;;5105973;28;20481;-78
2022/01/15 11:54:54;;;;;;;22.60;15.80;;;-7.70;99.90;;;;;;5105424;28;20390;-80
2022/01/15 11:57:45;;;;;;;18.97;14.07;;;-7.40;99.90;;;;;;5103718;28;20427;-80
2022/01/15 12:00:24;;;;;;;15.63;13.10;;;-7.00;99.90;;;;;;5103374;28;20502;-78
2022/01/15 12:03:05;;;;;;;17.27;13.53;;;-7.30;99.90;;;;;;5116481;28;20391;-82
2022/01/15 12:05:36;;;;;;;22.13;17.53;;;-7.00;99.90;;;;;;5101925;28;20527;-78
2022/01/15 12:08:01;;;;;;;17.83;14.23;;;-7.30;99.90;;;;;;5103660;28;20458;-77
2022/01/15 12:10:40;;;;;;;15.23;13.57;;;-8.00;99.90;;;;;;5103683;28;20434;-79
2022/01/15 12:13:20;;;;;;;19.53;13.77;;;-7.20;99.90;;;;;;5102185;28;20225;-79
2022/01/15 12:15:48;;;;;;;16.27;12.90;;;-7.10;99.90;;;;;;5113069;28;20420;-76
2022/01/15 12:18:17;;;;;;;16.77;13.73;;;-7.90;99.90;;;;;;5114056;28;20420;-77
2022/01/15 12:20:44;;;;;;;15.90;13.13;;;-7.80;99.90;;;;;;5114227;28;20452;-74
2022/01/15 12:23:18;;;;;;;14.97;13.37;;;-7.20;99.90;;;;;;5113889;28;20495;-79
2022/01/15 12:25:49;;;;;;;15.50;12.10;;;-7.80;99.90;;;;;;5113520;28;20703;-75
2022/01/15 12:28:16;;;;;;;21.40;13.77;;;-7.20;99.90;;;;;;5100407;28;20754;-76
2022/01/15 12:30:50;;;;;;;14.83;13.33;;;-7.40;99.90;;;;;;5106856;28;20413;-74
2022/01/15 12:33:18;;;;;;;25.10;16.33;;;-7.50;99.90;;;;;;5110509;28;20418;-78
2022/01/15 12:35:47;;;;;;;14.67;11.70;;;-7.50;99.90;;;;;;5097455;28;20417;-76
2022/01/15 12:38:25;;;;;;;20.90;14.50;;;-7.50;99.90;;;;;;5111500;28;20456;-77
2022/01/15 12:41:04;;;;;;;11.67;10.47;;;-7.70;99.90;;;;;;5094541;28;20935;-76
2022/01/15 12:43:34;;;;;;;14.00;9.17;;;-8.00;99.90;;;;;;5098058;28;20422;-76
2022/01/15 12:46:03;;;;;;;12.10;9.37;;;-7.80;99.90;;;;;;5110061;28;20421;-79
2022/01/15 12:48:31;;;;;;;10.77;8.73;;;-7.10;99.90;;;;;;5113873;28;20415;-79
2022/01/15 12:51:01;;;;;;;9.07;8.13;;;-7.80;99.90;;;;;;5106266;28;20402;-79